Nearby METAR Reports

 

KSJC - San Jose, California, USA
Distance from station: NE 9mi, 14km
Updated: Wed, 14-Nov-2018 9:53am EST
Haze, Partly cloudy
Haze, Partly cloudy
 Wind from S
Wind: S 3 mph , 6 km/h
Temperature: 39°F , 4°C
Dew Point: 30°F , -1°C
Humidity: 70%
Barometer: 30.36 inHg , 1028.1 hPa
Summary: Haze
Clouds: Partly cloudy
Visibility: 4 miles , 6 km
Cloud details: Few Clouds 100 ft
Few Clouds 800 ft
Partly cloudy 2300 ft
2018/11/14 14:53 KSJC 141453Z 18003KT 4SM HZ FEW001 FEW008 SCT023 04/M01 A3036 RMK AO2 SLP281 FU FEW001 FU FEW008 FU SCT023 T00441011 51003
KNUQ - Moffett Nas/Mtn, California, USA
Distance from station: N 9mi, 14km
Updated: Wed, 14-Nov-2018 9:56am EST
Haze, Clear
Haze, Clear
 Wind from calm
Wind: Calm
Temperature: 41°F , 5°C
Dew Point: 30°F , -1°C
Humidity: 66%
Barometer: 30.37 inHg , 1028.4 hPa
Summary: Haze
Clouds: Clear
Visibility: 6 miles , 10 km
2018/11/14 14:56 KNUQ 141456Z AUTO 00000KT 6SM HZ CLR 05/M01 A3037 RMK AO2 SLP285 T00501006 50001 $
 
KPAO - Palo Alto, California, USA
Distance from station: NNW 14mi, 23km
Updated: Wed, 14-Nov-2018 9:47am EST
Smoke, Haze, Clear
Smoke, Haze, Clear
 Wind from calm
Wind: Calm
Temperature: 39°F , 4°C
Dew Point: 34°F , 1°C
Humidity: 81%
Barometer: 30.37 inHg , 1028.4 hPa
Summary: Smoke, Haze
Clouds: Clear
Visibility: 5 miles , 8 km
2018/11/14 14:47 KPAO 141447Z 00000KT 5SM FU HZ SKC 04/01 A3037
KRHV - San Jose/Reid, California, USA
Distance from station: ENE 12mi, 19km
Updated: Wed, 14-Nov-2018 9:47am EST
Smoke, Clear
Smoke, Clear
 Wind from calm
Wind: Calm
Temperature: 37°F , 3°C
Dew Point: 30°F , -1°C
Humidity: 75%
Barometer: 30.35 inHg , 1027.8 hPa
Summary: Smoke
Clouds: Clear
Visibility: 8 miles , 13 km
2018/11/14 14:47 KRHV 141447Z 00000KT 8SM FU SKC 03/M01 A3035
 
KOAK - Oakland, California, USA
Distance from station: NNW 31mi, 50km
Updated: Wed, 14-Nov-2018 9:53am EST
Haze, Few clouds
Haze, Few clouds
 Wind from E
Wind: E 3 mph , 6 km/h
Temperature: 45°F , 7°C
Dew Point: 36°F , 2°C
Humidity: 71%
Barometer: 30.36 inHg , 1028.1 hPa
Summary: Haze
Clouds: Few Clouds
Visibility: 3 miles , 5 km
Cloud details: Few Clouds 1500 ft
2018/11/14 14:53 KOAK 141453Z 10003KT 3SM HZ FEW015 07/02 A3036 RMK AO2 TWR VIS 5 SLP281 FU FEW015 T00720017 50001
KSQL - San Carlos Airpo, California, USA
Distance from station: NW 21mi, 34km
Updated: Wed, 14-Nov-2018 10:00am EST
Haze, Clear
Haze, Clear
 Wind from calm
Wind: Calm
Temperature: 43°F , 6°C
Dew Point: 34°F , 1°C
Humidity: 71%
Barometer: 30.36 inHg , 1028.1 hPa
Summary: Haze
Clouds: Clear
Visibility: 3 miles , 5 km
2018/11/14 15:00 KSQL 141500Z AUTO 00000KT 3SM HZ CLR 06/01 A3036 RMK AO2
 
KSFO - San Francisco, California, USA
Distance from station: NW 30mi, 49km
Updated: Wed, 14-Nov-2018 9:56am EST
Mist, Partly cloudy
Mist, Partly cloudy
 Wind from S
Wind: S 3 mph , 6 km/h
Temperature: 46°F , 8°C
Dew Point: 45°F , 7°C
Humidity: 93%
Barometer: 30.34 inHg , 1027.4 hPa
Summary: Mist
Clouds: Partly cloudy
Visibility: 4 miles , 6 km
Cloud details: Few Clouds 800 ft
Partly cloudy 16000 ft
2018/11/14 14:56 KSFO 141456Z 17003KT 4SM BR FEW008 SCT160 08/07 A3034 RMK AO2 SLP275 T00830067 58001
KE16 - San Martin, California, USA
Distance from station: ESE 27mi, 43km
Updated: Wed, 14-Nov-2018 8:25am EST
NOT Current

 
2018/11/14 13:25 KE16 141325Z AUTO RMK AO2
 
KWVI - Watsonville, California, USA
Distance from station: SSE 27mi, 44km
Updated: Wed, 14-Nov-2018 9:53am EST
Clear
Clear
 Wind from W
Wind: W 3 mph , 6 km/h
Temperature: 37°F , 3°C
Dew Point: 27°F , -3°C
Humidity: 65%
Barometer: 30.35 inHg , 1027.8 hPa
Clouds: Clear
Visibility: 7 miles , 11 km
2018/11/14 14:53 KWVI 141453Z AUTO 28003KT 7SM CLR 03/M03 A3035 RMK AO2 SLP277 T00331033 53004
KHAF - Half Moon Bay, California, USA
Distance from station: WNW 31mi, 50km
Updated: Wed, 14-Nov-2018 10:20am EST
Clear
Clear
 
Temperature: 54°F , 12°C
Dew Point: 23°F , -5°C
Humidity: 30%
Barometer: 30.32 inHg , 1026.8 hPa
Clouds: Clear
Visibility: 7 miles , 11 km
2018/11/14 15:20 KHAF 141520Z AUTO 7SM CLR 12/M05 A3032 RMK AO2
 
KHWD - Hayward, California, USA
Distance from station: N 28mi, 44km
Updated: Wed, 14-Nov-2018 9:54am EST
Haze, Smoke, Clear
Haze, Smoke, Clear
 Wind from calm
Wind: Calm
Temperature: 45°F , 7°C
Dew Point: 28°F , -2°C
Humidity: 53%
Barometer: 30.35 inHg , 1027.8 hPa
Summary: Haze, Smoke
Clouds: Clear
Visibility: 4 miles , 6 km
2018/11/14 14:54 KHWD 141454Z 00000KT 4SM HZ FU CLR 07/M02 A3035 RMK AO2 SLP288 T00671022 50000 $
KLVK - Livermore, California, USA
Distance from station: NNE 31mi, 51km
Updated: Wed, 14-Nov-2018 9:53am EST
Haze, Smoke, Clear
Haze, Smoke, Clear
 Wind from ENE
Wind: ENE 5 mph , 7 km/h
Temperature: 36°F , 2°C
Wind Chill: 32°F , 0°C
Dew Point: 27°F , -3°C
Humidity: 70%
Barometer: 30.36 inHg , 1028.1 hPa
Summary: Haze, Smoke
Clouds: Clear
Visibility: 4 miles , 6 km
2018/11/14 14:53 KLVK 141453Z 07004KT 4SM HZ FU CLR 02/M03 A3036 RMK AO2 SLP281 T00221033 58002